createdAt,value
2022-11-05T00:02:27.072Z,8.80
2022-11-05T00:05:12.563Z,8.80
2022-11-05T00:08:00.258Z,8.60
2022-11-05T00:10:30.477Z,8.70
2022-11-05T00:13:19.034Z,8.70
2022-11-05T00:16:04.423Z,8.80
2022-11-05T00:18:32.311Z,8.80
2022-11-05T00:21:00.144Z,8.80
2022-11-05T00:23:45.536Z,8.70
2022-11-05T00:26:14.595Z,8.70
2022-11-05T00:28:44.588Z,8.70
2022-11-05T00:31:14.280Z,8.70
2022-11-05T00:33:44.183Z,8.80
2022-11-05T00:36:12.651Z,8.80
2022-11-05T00:38:40.418Z,8.80
2022-11-05T00:41:08.169Z,8.90
2022-11-05T00:43:53.438Z,8.80
2022-11-05T00:46:23.251Z,8.80
2022-11-05T00:49:08.699Z,8.80
2022-11-05T00:51:36.480Z,8.80
2022-11-05T00:54:04.354Z,8.80
2022-11-05T00:56:32.102Z,8.80
2022-11-05T00:58:59.882Z,8.80
2022-11-05T01:01:29.040Z,8.80
2022-11-05T01:03:56.871Z,8.80
2022-11-05T01:06:25.256Z,8.80
2022-11-05T01:08:53.081Z,8.80
2022-11-05T01:11:33.886Z,8.80
2022-11-05T01:14:02.095Z,8.70
2022-11-05T01:16:31.267Z,8.70
2022-11-05T01:18:59.026Z,8.70
2022-11-05T01:21:26.803Z,8.70
2022-11-05T01:23:54.587Z,8.70
2022-11-05T01:26:22.653Z,8.70
2022-11-05T01:28:52.116Z,8.70
2022-11-05T01:31:20.062Z,8.80
2022-11-05T01:33:50.107Z,8.80
2022-11-05T01:36:18.282Z,8.70
2022-11-05T01:38:46.060Z,8.70
2022-11-05T01:41:13.845Z,8.60
2022-11-05T01:43:50.245Z,8.60
2022-11-05T01:46:20.679Z,8.70
2022-11-05T01:48:53.798Z,8.70
2022-11-05T01:51:27.281Z,8.70
2022-11-05T01:53:58.522Z,8.80
2022-11-05T01:56:29.718Z,8.80
2022-11-05T01:59:04.224Z,8.90
2022-11-05T02:01:33.060Z,8.90
2022-11-05T02:04:09.384Z,8.90
2022-11-05T02:06:42.429Z,9.00
2022-11-05T02:09:13.906Z,9.00
2022-11-05T02:11:41.688Z,9.00
2022-11-05T02:14:10.385Z,9.00
2022-11-05T02:16:42.214Z,9.00
2022-11-05T02:19:43.510Z,9.00
2022-11-05T02:22:58.471Z,9.10
2022-11-05T02:25:56.213Z,9.10
2022-11-05T02:28:44.678Z,9.10
2022-11-05T02:31:20.471Z,9.10
2022-11-05T02:33:56.824Z,9.10
2022-11-05T02:36:35.812Z,9.10
2022-11-05T02:39:15.280Z,9.10
2022-11-05T02:41:50.274Z,9.00
2022-11-05T02:44:27.538Z,9.00
2022-11-05T02:47:00.180Z,8.90
2022-11-05T02:49:38.071Z,8.90
2022-11-05T02:52:10.515Z,8.80
2022-11-05T02:54:42.175Z,8.80
2022-11-05T02:57:10.212Z,8.80
2022-11-05T02:59:38.075Z,8.70
2022-11-05T03:02:07.770Z,8.70
2022-11-05T03:04:35.878Z,8.70
2022-11-05T03:07:25.120Z,8.70
2022-11-05T03:10:15.045Z,8.70
2022-11-05T03:12:56.908Z,8.80
2022-11-05T03:15:42.627Z,8.80
2022-11-05T03:18:16.707Z,8.80
2022-11-05T03:20:50.535Z,8.90
2022-11-05T03:23:25.923Z,8.90
2022-11-05T03:26:00.448Z,8.90
2022-11-05T03:28:32.279Z,8.90
2022-11-05T03:31:01.033Z,8.90
2022-11-05T03:33:34.355Z,8.90
2022-11-05T03:36:06.063Z,8.90
2022-11-05T03:38:37.455Z,9.00
2022-11-05T03:41:10.827Z,9.00
2022-11-05T03:43:43.699Z,9.00
2022-11-05T03:46:16.042Z,9.00
2022-11-05T03:48:48.470Z,9.00
2022-11-05T03:51:21.800Z,9.00
2022-11-05T03:53:54.512Z,9.00
2022-11-05T03:56:30.163Z,9.00
2022-11-05T03:59:00.368Z,8.90
2022-11-05T04:01:29.163Z,8.90
2022-11-05T04:03:58.464Z,8.90
2022-11-05T04:06:43.951Z,8.90
2022-11-05T04:09:29.512Z,8.80
2022-11-05T04:12:15.051Z,8.80
2022-11-05T04:14:42.946Z,8.70
2022-11-05T04:17:09.987Z,8.70
2022-11-05T04:19:58.423Z,8.70
2022-11-05T04:22:45.457Z,8.60
2022-11-05T04:25:13.997Z,8.70
2022-11-05T04:27:41.907Z,8.70
2022-11-05T04:30:18.286Z,8.70
2022-11-05T04:33:01.052Z,8.80
2022-11-05T04:35:31.983Z,8.80
2022-11-05T04:38:00.150Z,8.70
2022-11-05T04:40:28.322Z,8.70
2022-11-05T04:42:57.265Z,8.80
2022-11-05T04:45:26.270Z,8.80
2022-11-05T04:47:54.322Z,8.90
2022-11-05T04:50:22.410Z,8.90
2022-11-05T04:52:51.688Z,9.00
2022-11-05T04:55:21.189Z,9.00
2022-11-05T04:57:50.376Z,9.00
2022-11-05T05:00:18.953Z,9.00
2022-11-05T05:02:47.145Z,9.00
2022-11-05T05:05:15.175Z,9.00
2022-11-05T05:07:43.480Z,9.00
2022-11-05T05:10:13.453Z,9.00
2022-11-05T05:12:42.352Z,9.00
2022-11-05T05:15:10.264Z,9.00
2022-11-05T05:17:38.225Z,9.00
2022-11-05T05:20:24.130Z,9.00
2022-11-05T05:22:55.674Z,9.10
2022-11-05T05:25:24.935Z,9.10
2022-11-05T05:27:52.788Z,9.10
2022-11-05T05:30:20.680Z,9.00
2022-11-05T05:32:48.556Z,9.10
2022-11-05T05:35:16.801Z,9.10
2022-11-05T05:37:45.462Z,9.10
2022-11-05T05:40:13.359Z,9.10
2022-11-05T05:42:43.564Z,9.10
2022-11-05T05:45:12.583Z,9.00
2022-11-05T05:47:40.556Z,8.90
2022-11-05T05:50:08.816Z,8.90
2022-11-05T05:52:36.695Z,9.00
2022-11-05T05:55:04.808Z,9.00
2022-11-05T05:57:32.699Z,8.80
2022-11-05T06:00:02.007Z,9.00
2022-11-05T06:02:31.662Z,9.10
2022-11-05T06:04:59.618Z,9.10
2022-11-05T06:07:27.488Z,9.10
2022-11-05T06:09:55.391Z,9.20
2022-11-05T06:12:23.294Z,9.10
2022-11-05T06:14:51.150Z,9.20
2022-11-05T06:17:20.355Z,9.20
2022-11-05T06:19:48.358Z,9.30
2022-11-05T06:22:16.411Z,9.30
2022-11-05T06:24:44.271Z,9.30
2022-11-05T06:27:12.152Z,9.30
2022-11-05T06:29:40.017Z,9.30
2022-11-05T06:32:07.896Z,9.30
2022-11-05T06:34:37.738Z,9.30
2022-11-05T06:37:05.596Z,9.30
2022-11-05T06:39:33.483Z,9.30
2022-11-05T06:42:17.905Z,9.30
2022-11-05T06:44:46.505Z,9.30
2022-11-05T06:47:14.443Z,9.30
2022-11-05T06:49:43.628Z,9.30
2022-11-05T06:52:12.076Z,9.40
2022-11-05T06:54:40.732Z,9.40
2022-11-05T06:57:09.856Z,9.40
2022-11-05T06:59:37.960Z,9.40
2022-11-05T07:02:06.221Z,9.40
2022-11-05T07:04:34.698Z,9.40
2022-11-05T07:07:04.015Z,9.30
2022-11-05T07:09:31.876Z,9.30
2022-11-05T07:11:59.786Z,9.30
2022-11-05T07:14:27.644Z,9.40
2022-11-05T07:16:55.501Z,9.50
2022-11-05T07:19:23.356Z,9.60
2022-11-05T07:21:51.632Z,9.70
2022-11-05T07:24:20.853Z,9.70
2022-11-05T07:26:48.819Z,9.70
2022-11-05T07:29:16.648Z,9.70
2022-11-05T07:31:46.359Z,9.70
2022-11-05T07:34:14.235Z,9.70
2022-11-05T07:36:42.100Z,9.70
2022-11-05T07:39:10.008Z,9.70
2022-11-05T07:41:39.215Z,9.70
2022-11-05T07:44:07.468Z,9.70
2022-11-05T07:46:35.347Z,9.80
2022-11-05T07:49:03.434Z,9.90
2022-11-05T07:51:31.304Z,9.90
2022-11-05T07:53:59.172Z,10.00
2022-11-05T07:56:27.043Z,9.90
2022-11-05T07:58:56.278Z,9.90
2022-11-05T08:01:24.328Z,9.90
2022-11-05T08:03:52.722Z,9.90
2022-11-05T08:06:20.615Z,9.90
2022-11-05T08:08:48.465Z,9.90
2022-11-05T08:11:16.320Z,9.90
2022-11-05T08:13:44.222Z,9.90
2022-11-05T08:16:13.430Z,9.90
2022-11-05T08:18:41.372Z,10.00
2022-11-05T08:21:09.516Z,10.00
2022-11-05T08:23:38.606Z,10.00
2022-11-05T08:26:06.687Z,10.10
2022-11-05T08:28:34.547Z,10.30
2022-11-05T08:31:02.411Z,10.60
2022-11-05T08:33:33.069Z,10.70
2022-11-05T08:36:03.789Z,10.80
2022-11-05T08:38:31.848Z,10.80
2022-11-05T08:41:00.365Z,10.80
2022-11-05T08:43:28.266Z,10.70
2022-11-05T08:45:56.388Z,10.60
2022-11-05T08:48:24.257Z,10.70
2022-11-05T08:50:53.625Z,10.50
2022-11-05T08:53:21.573Z,10.50
2022-11-05T08:55:51.112Z,10.40
2022-11-05T08:58:20.562Z,10.40
2022-11-05T09:00:50.298Z,10.40
2022-11-05T09:03:18.863Z,10.40
2022-11-05T09:05:47.064Z,10.40
2022-11-05T09:08:18.360Z,10.50
2022-11-05T09:10:47.960Z,10.50
2022-11-05T09:13:19.298Z,10.50
2022-11-05T09:15:48.522Z,10.40
2022-11-05T09:18:17.269Z,10.40
2022-11-05T09:20:45.443Z,10.50
2022-11-05T09:23:15.100Z,10.40
2022-11-05T09:25:45.483Z,10.40
2022-11-05T09:28:17.132Z,10.40
2022-11-05T09:30:47.104Z,10.30
2022-11-05T09:33:15.674Z,10.30
2022-11-05T09:35:43.891Z,10.40
2022-11-05T09:38:11.978Z,10.40
2022-11-05T09:40:43.863Z,10.30
2022-11-05T09:43:19.525Z,10.40
2022-11-05T09:45:49.502Z,10.40
2022-11-05T09:48:21.931Z,10.50
2022-11-05T09:50:51.443Z,10.60
2022-11-05T09:53:21.266Z,10.60
2022-11-05T09:55:51.604Z,10.60
2022-11-05T09:58:28.867Z,10.70
2022-11-05T10:00:58.128Z,10.70
2022-11-05T10:03:30.864Z,10.80
2022-11-05T10:06:06.892Z,10.70
2022-11-05T10:08:42.543Z,10.80
2022-11-05T10:11:15.361Z,10.80
2022-11-05T10:13:47.916Z,10.80
2022-11-05T10:16:25.058Z,10.90
2022-11-05T10:18:56.130Z,11.10
2022-11-05T10:21:51.285Z,11.30
2022-11-05T10:24:16.611Z,11.30
2022-11-05T10:26:47.403Z,11.20
2022-11-05T10:29:23.441Z,11.10
2022-11-05T10:31:53.992Z,10.90
2022-11-05T10:34:23.360Z,10.90
2022-11-05T10:36:51.224Z,10.90
2022-11-05T10:39:20.370Z,10.90
2022-11-05T10:42:03.948Z,10.90
2022-11-05T10:44:40.721Z,10.90
2022-11-05T10:47:29.604Z,10.90
2022-11-05T10:49:59.620Z,10.90
2022-11-05T10:52:32.443Z,10.90
2022-11-05T10:55:03.284Z,10.90
2022-11-05T10:57:34.878Z,10.90
2022-11-05T11:00:23.424Z,10.90
2022-11-05T11:02:54.116Z,10.80
2022-11-05T11:05:26.013Z,10.80
2022-11-05T11:08:01.236Z,10.90
2022-11-05T11:10:31.578Z,11.00
2022-11-05T11:12:59.723Z,11.10
2022-11-05T11:15:32.516Z,11.70
2022-11-05T11:18:19.133Z,13.30
2022-11-05T11:20:47.404Z,15.90
2022-11-05T11:23:16.613Z,17.80
2022-11-05T11:25:48.811Z,18.40
2022-11-05T11:28:22.097Z,18.20
2022-11-05T11:30:56.079Z,17.50
2022-11-05T11:33:28.174Z,16.60
2022-11-05T11:35:56.587Z,15.70
2022-11-05T11:38:26.199Z,15.10
2022-11-05T11:41:02.556Z,14.40
2022-11-05T11:43:34.945Z,13.90
2022-11-05T11:46:09.896Z,13.30
2022-11-05T11:48:42.121Z,12.90
2022-11-05T11:51:19.860Z,12.60
2022-11-05T11:53:49.891Z,12.30
2022-11-05T11:56:20.293Z,12.10
2022-11-05T11:58:50.149Z,11.90
2022-11-05T12:01:42.791Z,11.80
2022-11-05T12:04:26.780Z,11.70
2022-11-05T12:07:06.435Z,11.60
2022-11-05T12:09:47.627Z,11.50
2022-11-05T12:12:17.820Z,11.50
2022-11-05T12:14:54.248Z,11.40
2022-11-05T12:17:39.885Z,11.40
2022-11-05T12:20:26.732Z,11.70
2022-11-05T12:23:14.220Z,12.20
2022-11-05T12:25:49.821Z,12.50
2022-11-05T12:28:36.157Z,12.60
2022-11-05T12:31:12.205Z,12.60
2022-11-05T12:33:52.141Z,12.50
2022-11-05T12:36:33.752Z,12.40
2022-11-05T12:39:21.217Z,12.60
2022-11-05T12:41:56.740Z,13.00
2022-11-05T12:44:48.139Z,13.30
2022-11-05T12:47:32.930Z,13.80
2022-11-05T12:50:12.332Z,15.20
2022-11-05T12:53:09.436Z,17.10
2022-11-05T12:55:45.524Z,17.30
2022-11-05T12:58:22.854Z,16.70
2022-11-05T13:00:56.947Z,15.90
2022-11-05T13:03:31.787Z,15.20
2022-11-05T13:06:06.638Z,14.70
2022-11-05T13:08:42.169Z,14.10
2022-11-05T13:11:20.356Z,13.80
2022-11-05T13:13:54.928Z,13.40
2022-11-05T13:16:27.131Z,13.10
2022-11-05T13:19:00.062Z,12.90
2022-11-05T13:21:31.017Z,12.70
2022-11-05T13:24:05.031Z,12.50
2022-11-05T13:26:39.665Z,12.30
2022-11-05T13:29:12.552Z,12.20
2022-11-05T13:31:48.256Z,12.10
2022-11-05T13:34:16.136Z,12.00
2022-11-05T13:37:08.699Z,11.90
2022-11-05T13:39:42.499Z,11.80
2022-11-05T13:42:37.043Z,11.70
2022-11-05T13:45:29.949Z,11.70
2022-11-05T13:48:17.093Z,11.60
2022-11-05T13:51:10.879Z,11.60
2022-11-05T13:54:02.310Z,11.50
2022-11-05T13:56:40.731Z,11.40
2022-11-05T13:59:36.467Z,11.40
2022-11-05T14:02:12.630Z,11.30
2022-11-05T14:04:46.067Z,11.20
2022-11-05T14:07:19.181Z,11.20
2022-11-05T14:09:54.296Z,11.20
2022-11-05T14:12:27.340Z,11.20
2022-11-05T14:15:01.921Z,11.30
2022-11-05T14:17:34.979Z,11.10
2022-11-05T14:20:26.252Z,11.10
2022-11-05T14:22:54.599Z,11.10
2022-11-05T14:26:01.989Z,11.10
2022-11-05T14:28:43.547Z,11.00
2022-11-05T14:31:54.325Z,11.00
2022-11-05T14:34:40.198Z,11.00
2022-11-05T14:37:25.556Z,11.00
2022-11-05T14:39:55.424Z,11.00
2022-11-05T14:42:29.009Z,11.00
2022-11-05T14:45:19.037Z,10.90
2022-11-05T14:47:55.420Z,10.90
2022-11-05T14:50:30.544Z,10.80
2022-11-05T14:53:08.215Z,10.90
2022-11-05T14:55:38.720Z,10.90
2022-11-05T14:58:26.993Z,10.90
2022-11-05T15:00:57.579Z,10.80
2022-11-05T15:04:01.700Z,10.80
2022-11-05T15:06:32.693Z,10.80
2022-11-05T15:09:19.264Z,10.80
2022-11-05T15:11:57.917Z,10.80
2022-11-05T15:14:31.539Z,10.80
2022-11-05T15:17:09.507Z,10.80
2022-11-05T15:19:39.480Z,10.80
2022-11-05T15:22:18.613Z,10.80
2022-11-05T15:24:46.520Z,10.70
2022-11-05T15:27:24.683Z,10.80
2022-11-05T15:29:52.672Z,10.80
2022-11-05T15:32:26.415Z,10.80
2022-11-05T15:34:56.205Z,10.70
2022-11-05T15:37:26.423Z,10.80
2022-11-05T15:39:55.512Z,10.70
2022-11-05T15:42:25.965Z,10.70
2022-11-05T15:44:55.356Z,10.70
2022-11-05T15:47:26.389Z,10.70
2022-11-05T15:49:56.475Z,10.70
2022-11-05T15:52:26.332Z,10.70
2022-11-05T15:55:18.786Z,10.70
2022-11-05T15:57:51.229Z,10.70
2022-11-05T16:00:22.200Z,10.70
2022-11-05T16:02:56.839Z,10.60
2022-11-05T16:05:26.370Z,10.60
2022-11-05T16:07:54.640Z,10.60
2022-11-05T16:10:24.443Z,10.60
2022-11-05T16:12:52.546Z,10.60
2022-11-05T16:15:23.724Z,10.60
2022-11-05T16:17:55.675Z,10.60
2022-11-05T16:20:28.301Z,10.60
2022-11-05T16:22:58.212Z,10.50
2022-11-05T16:25:32.584Z,10.50
2022-11-05T16:28:01.734Z,10.50
2022-11-05T16:30:30.070Z,10.40
2022-11-05T16:33:07.147Z,10.40
2022-11-05T16:35:39.428Z,10.40
2022-11-05T16:38:07.487Z,10.40
2022-11-05T16:40:35.363Z,10.40
2022-11-05T16:43:16.174Z,10.40
2022-11-05T16:45:44.251Z,10.40
2022-11-05T16:48:15.051Z,10.40
2022-11-05T16:50:43.432Z,10.40
2022-11-05T16:53:12.040Z,10.30
2022-11-05T16:55:42.004Z,10.30
2022-11-05T16:58:19.262Z,10.30
2022-11-05T17:00:47.424Z,10.30
2022-11-05T17:03:16.730Z,10.30
2022-11-05T17:05:45.007Z,10.30
2022-11-05T17:08:13.081Z,10.20
2022-11-05T17:10:41.275Z,10.30
2022-11-05T17:13:13.749Z,10.30
2022-11-05T17:15:43.670Z,10.30
2022-11-05T17:18:17.921Z,10.30
2022-11-05T17:20:49.384Z,10.30
2022-11-05T17:23:18.872Z,10.30
2022-11-05T17:25:48.890Z,10.20
2022-11-05T17:28:17.481Z,10.20
2022-11-05T17:30:51.675Z,10.20
2022-11-05T17:33:21.404Z,10.20
2022-11-05T17:35:50.837Z,10.20
2022-11-05T17:38:18.997Z,10.20
2022-11-05T17:40:46.877Z,10.20
2022-11-05T17:43:15.291Z,10.20
2022-11-05T17:45:45.157Z,10.20
2022-11-05T17:48:13.852Z,10.20
2022-11-05T17:50:42.752Z,10.10
2022-11-05T17:53:12.371Z,10.10
2022-11-05T17:55:41.676Z,10.10
2022-11-05T17:58:09.620Z,10.10
2022-11-05T18:00:38.613Z,10.10
2022-11-05T18:03:06.915Z,10.10
2022-11-05T18:05:35.649Z,10.10
2022-11-05T18:08:03.899Z,10.10
2022-11-05T18:10:33.137Z,10.10
2022-11-05T18:13:00.983Z,10.10
2022-11-05T18:15:28.870Z,10.10
2022-11-05T18:17:56.769Z,10.10
2022-11-05T18:20:25.084Z,10.00
2022-11-05T18:22:52.987Z,10.00
2022-11-05T18:25:20.894Z,10.00
2022-11-05T18:27:50.103Z,10.10
2022-11-05T18:30:18.191Z,10.00
2022-11-05T18:32:47.630Z,10.00
2022-11-05T18:35:15.472Z,10.00
2022-11-05T18:37:43.478Z,10.10
2022-11-05T18:40:12.259Z,10.00
2022-11-05T18:42:40.330Z,9.90
2022-11-05T18:45:11.210Z,9.90
2022-11-05T18:47:39.131Z,9.90
2022-11-05T18:50:10.563Z,9.90
2022-11-05T18:52:38.464Z,9.90
2022-11-05T18:55:07.564Z,9.90
2022-11-05T18:57:35.765Z,9.90
2022-11-05T19:00:03.829Z,9.90
2022-11-05T19:02:33.307Z,9.90
2022-11-05T19:05:27.305Z,10.00
2022-11-05T19:07:49.111Z,10.00
2022-11-05T19:10:17.353Z,10.00
2022-11-05T19:12:45.236Z,10.00
2022-11-05T19:15:13.339Z,10.00
2022-11-05T19:17:42.604Z,9.90
2022-11-05T19:20:11.116Z,9.90
2022-11-05T19:22:39.028Z,9.90
2022-11-05T19:25:08.042Z,9.90
2022-11-05T19:27:37.433Z,9.90
2022-11-05T19:30:05.810Z,9.90
2022-11-05T19:32:33.720Z,9.80
2022-11-05T19:35:02.958Z,9.80
2022-11-05T19:37:30.810Z,9.80
2022-11-05T19:39:58.675Z,9.80
2022-11-05T19:42:27.457Z,9.70
2022-11-05T19:44:55.289Z,9.70
2022-11-05T19:47:23.138Z,9.70
2022-11-05T19:49:50.989Z,9.60
2022-11-05T19:52:20.327Z,9.50
2022-11-05T19:54:48.260Z,9.40
2022-11-05T19:57:16.144Z,9.20
2022-11-05T19:59:44.024Z,9.20
2022-11-05T20:02:16.033Z,9.10
2022-11-05T20:04:44.837Z,9.00
2022-11-05T20:07:12.687Z,9.00
2022-11-05T20:09:42.000Z,9.00
2022-11-05T20:12:09.875Z,8.90
2022-11-05T20:14:38.122Z,8.80
2022-11-05T20:17:05.999Z,8.80
2022-11-05T20:19:35.032Z,8.70
2022-11-05T20:22:02.943Z,8.70
2022-11-05T20:24:30.916Z,8.60
2022-11-05T20:27:00.175Z,8.60
2022-11-05T20:29:34.719Z,8.60
2022-11-05T20:32:03.456Z,8.60
2022-11-05T20:34:31.877Z,8.60
2022-11-05T20:36:59.820Z,8.70
2022-11-05T20:39:27.896Z,8.70
2022-11-05T20:41:56.716Z,8.60
2022-11-05T20:44:25.993Z,8.60
2022-11-05T20:46:54.071Z,8.60
2022-11-05T20:49:25.352Z,8.60
2022-11-05T20:51:53.980Z,8.50
2022-11-05T20:54:22.077Z,8.50
2022-11-05T20:56:49.936Z,8.50
2022-11-05T20:59:17.887Z,8.50
2022-11-05T21:01:47.189Z,8.60
2022-11-05T21:04:15.192Z,8.60
2022-11-05T21:06:43.062Z,8.70
2022-11-05T21:09:10.934Z,8.60
2022-11-05T21:11:52.719Z,8.70
2022-11-05T21:14:20.587Z,8.70
2022-11-05T21:16:49.832Z,8.80
2022-11-05T21:19:17.686Z,8.80
2022-11-05T21:21:45.547Z,8.90
2022-11-05T21:24:13.389Z,8.90
2022-11-05T21:26:41.273Z,8.80
2022-11-05T21:29:09.159Z,8.80
2022-11-05T21:31:37.536Z,8.80
2022-11-05T21:34:06.792Z,8.70
2022-11-05T21:36:34.816Z,8.70
2022-11-05T21:39:03.280Z,8.80
2022-11-05T21:41:31.172Z,8.80
2022-11-05T21:43:59.184Z,8.80
2022-11-05T21:46:27.105Z,8.90
2022-11-05T21:48:54.953Z,9.00
2022-11-05T21:51:41.711Z,9.00
2022-11-05T21:54:28.895Z,9.00
2022-11-05T21:57:14.250Z,9.00
2022-11-05T21:59:52.825Z,8.90
2022-11-05T22:02:22.376Z,8.90
2022-11-05T22:04:53.138Z,8.80
2022-11-05T22:07:24.527Z,8.80
2022-11-05T22:09:52.408Z,8.80
2022-11-05T22:12:20.332Z,8.70
2022-11-05T22:14:48.196Z,8.70
2022-11-05T22:17:16.412Z,8.70
2022-11-05T22:19:44.306Z,8.70
2022-11-05T22:22:12.700Z,8.60
2022-11-05T22:24:42.334Z,8.50
2022-11-05T22:27:13.450Z,8.40
2022-11-05T22:29:41.509Z,8.40
2022-11-05T22:32:10.485Z,8.30
2022-11-05T22:34:38.622Z,8.30
2022-11-05T22:37:06.860Z,8.20
2022-11-05T22:39:34.720Z,8.20
2022-11-05T22:42:08.227Z,8.20
2022-11-05T22:44:37.212Z,8.10
2022-11-05T22:47:05.527Z,8.00
2022-11-05T22:49:33.565Z,7.90
2022-11-05T22:52:01.451Z,7.90
2022-11-05T22:54:29.461Z,7.80
2022-11-05T22:56:57.338Z,7.70
2022-11-05T22:59:26.702Z,7.70
2022-11-05T23:01:54.652Z,7.60
2022-11-05T23:04:22.599Z,7.60
2022-11-05T23:07:08.218Z,7.60
2022-11-05T23:09:54.075Z,7.40
2022-11-05T23:12:25.473Z,7.30
2022-11-05T23:14:56.031Z,7.20
2022-11-05T23:17:41.424Z,7.30
2022-11-05T23:20:30.685Z,7.30
2022-11-05T23:23:16.787Z,7.30
2022-11-05T23:25:44.772Z,7.30
2022-11-05T23:28:13.744Z,7.20
2022-11-05T23:30:59.386Z,7.10
2022-11-05T23:33:27.426Z,7.10
2022-11-05T23:36:12.985Z,7.00
2022-11-05T23:38:41.102Z,7.00
2022-11-05T23:41:26.664Z,7.00
2022-11-05T23:44:12.138Z,7.00
2022-11-05T23:46:58.963Z,6.90
2022-11-05T23:49:27.183Z,7.00
2022-11-05T23:51:55.043Z,7.00
2022-11-05T23:54:22.947Z,6.90
2022-11-05T23:56:50.821Z,6.90
2022-11-05T23:59:18.705Z,6.80
